sensor_id;sensor_type;location;lat;lon;timestamp;pressure;altitude;pressure_sealevel;temperature;humidity
50702;BME280;36670;50.094;8.496;2022-08-20T00:00:40;100135.06;;;23.73;52.26
50702;BME280;36670;50.094;8.496;2022-08-20T00:03:09;100132.66;;;23.63;51.93
50702;BME280;36670;50.094;8.496;2022-08-20T00:05:41;100140.38;;;23.75;52.27
50702;BME280;36670;50.094;8.496;2022-08-20T00:08:08;100134.38;;;23.76;51.98
50702;BME280;36670;50.094;8.496;2022-08-20T00:10:36;100133.41;;;23.72;52.64
50702;BME280;36670;50.094;8.496;2022-08-20T00:13:04;100137.19;;;23.76;52.10
50702;BME280;36670;50.094;8.496;2022-08-20T00:15:32;100136.75;;;23.86;52.55
50702;BME280;36670;50.094;8.496;2022-08-20T00:17:58;100134.56;;;23.92;51.88
50702;BME280;36670;50.094;8.496;2022-08-20T00:20:27;100140.00;;;23.97;51.97
50702;BME280;36670;50.094;8.496;2022-08-20T00:22:53;100141.19;;;24.09;52.17
50702;BME280;36670;50.094;8.496;2022-08-20T00:25:19;100142.06;;;23.88;53.05
50702;BME280;36670;50.094;8.496;2022-08-20T00:27:44;100136.94;;;23.90;53.48
50702;BME280;36670;50.094;8.496;2022-08-20T00:30:12;100135.16;;;23.98;53.49
50702;BME280;36670;50.094;8.496;2022-08-20T00:32:50;100132.97;;;23.82;53.52
50702;BME280;36670;50.094;8.496;2022-08-20T00:35:18;100128.03;;;23.79;54.41
50702;BME280;36670;50.094;8.496;2022-08-20T00:37:44;100133.94;;;23.86;53.88
50702;BME280;36670;50.094;8.496;2022-08-20T00:40:13;100139.91;;;23.85;54.06
50702;BME280;36670;50.094;8.496;2022-08-20T00:42:42;100144.06;;;23.88;54.63
50702;BME280;36670;50.094;8.496;2022-08-20T00:45:09;100148.94;;;23.78;54.92
50702;BME280;36670;50.094;8.496;2022-08-20T00:47:35;100146.34;;;23.73;54.78
50702;BME280;36670;50.094;8.496;2022-08-20T00:50:02;100140.75;;;23.85;54.32
50702;BME280;36670;50.094;8.496;2022-08-20T00:52:30;100143.03;;;23.92;54.51
50702;BME280;36670;50.094;8.496;2022-08-20T00:54:58;100135.63;;;23.88;54.66
50702;BME280;36670;50.094;8.496;2022-08-20T00:57:42;100148.28;;;23.81;54.45
50702;BME280;36670;50.094;8.496;2022-08-20T01:00:17;100151.19;;;23.85;54.89
50702;BME280;36670;50.094;8.496;2022-08-20T01:02:43;100151.09;;;23.60;56.20
50702;BME280;36670;50.094;8.496;2022-08-20T01:05:10;100159.59;;;23.73;55.18
50702;BME280;36670;50.094;8.496;2022-08-20T01:07:36;100155.88;;;23.81;54.68
50702;BME280;36670;50.094;8.496;2022-08-20T01:10:07;100158.00;;;23.84;54.88
50702;BME280;36670;50.094;8.496;2022-08-20T01:12:34;100161.19;;;23.61;55.83
50702;BME280;36670;50.094;8.496;2022-08-20T01:15:04;100160.78;;;23.72;55.60
50702;BME280;36670;50.094;8.496;2022-08-20T01:17:33;100167.72;;;23.74;55.77
50702;BME280;36670;50.094;8.496;2022-08-20T01:20:09;100167.34;;;23.76;56.08
50702;BME280;36670;50.094;8.496;2022-08-20T01:22:52;100166.69;;;23.79;55.86
50702;BME280;36670;50.094;8.496;2022-08-20T01:25:56;100170.69;;;23.78;56.27
50702;BME280;36670;50.094;8.496;2022-08-20T01:30:56;100173.50;;;23.78;56.07
50702;BME280;36670;50.094;8.496;2022-08-20T01:35:48;100176.84;;;23.71;56.86
50702;BME280;36670;50.094;8.496;2022-08-20T01:38:15;100174.19;;;23.75;57.12
50702;BME280;36670;50.094;8.496;2022-08-20T01:43:31;100176.09;;;23.62;57.80
50702;BME280;36670;50.094;8.496;2022-08-20T01:45:57;100171.25;;;23.50;58.80
50702;BME280;36670;50.094;8.496;2022-08-20T01:48:22;100174.47;;;23.40;58.21
50702;BME280;36670;50.094;8.496;2022-08-20T01:51:03;100165.88;;;23.36;59.08
50702;BME280;36670;50.094;8.496;2022-08-20T01:53:37;100178.25;;;23.44;58.73
50702;BME280;36670;50.094;8.496;2022-08-20T01:56:06;100173.97;;;23.38;59.15
50702;BME280;36670;50.094;8.496;2022-08-20T01:58:33;100177.75;;;23.42;59.28
50702;BME280;36670;50.094;8.496;2022-08-20T02:01:00;100179.69;;;23.29;59.21
50702;BME280;36670;50.094;8.496;2022-08-20T02:03:25;100178.22;;;23.23;59.92
50702;BME280;36670;50.094;8.496;2022-08-20T02:05:51;100179.25;;;23.18;60.17
50702;BME280;36670;50.094;8.496;2022-08-20T02:08:19;100176.94;;;23.20;59.72
50702;BME280;36670;50.094;8.496;2022-08-20T02:10:46;100174.94;;;23.21;60.30
50702;BME280;36670;50.094;8.496;2022-08-20T02:13:12;100179.59;;;23.16;59.86
50702;BME280;36670;50.094;8.496;2022-08-20T02:15:38;100175.63;;;23.17;60.47
50702;BME280;36670;50.094;8.496;2022-08-20T02:18:10;100179.97;;;23.36;59.34
50702;BME280;36670;50.094;8.496;2022-08-20T02:20:38;100182.09;;;23.39;59.24
50702;BME280;36670;50.094;8.496;2022-08-20T02:23:05;100186.56;;;23.40;59.18
50702;BME280;36670;50.094;8.496;2022-08-20T02:25:33;100185.91;;;23.13;60.15
50702;BME280;36670;50.094;8.496;2022-08-20T02:28:02;100187.22;;;23.16;59.99
50702;BME280;36670;50.094;8.496;2022-08-20T02:30:33;100184.16;;;23.30;59.50
50702;BME280;36670;50.094;8.496;2022-08-20T02:33:03;100197.31;;;23.38;59.08
50702;BME280;36670;50.094;8.496;2022-08-20T02:35:29;100188.66;;;23.22;59.59
50702;BME280;36670;50.094;8.496;2022-08-20T02:37:55;100191.56;;;23.34;59.47
50702;BME280;36670;50.094;8.496;2022-08-20T02:40:23;100190.19;;;23.41;59.30
50702;BME280;36670;50.094;8.496;2022-08-20T02:42:53;100198.63;;;23.41;59.28
50702;BME280;36670;50.094;8.496;2022-08-20T02:45:19;100201.19;;;23.33;59.42
50702;BME280;36670;50.094;8.496;2022-08-20T02:47:46;100197.41;;;23.50;58.74
50702;BME280;36670;50.094;8.496;2022-08-20T02:50:14;100188.28;;;23.54;58.51
50702;BME280;36670;50.094;8.496;2022-08-20T02:52:41;100193.63;;;23.46;59.54
50702;BME280;36670;50.094;8.496;2022-08-20T02:55:07;100197.06;;;23.31;59.54
50702;BME280;36670;50.094;8.496;2022-08-20T02:57:33;100196.78;;;23.45;59.32
50702;BME280;36670;50.094;8.496;2022-08-20T02:59:58;100194.81;;;23.45;59.61
50702;BME280;36670;50.094;8.496;2022-08-20T03:02:24;100192.25;;;23.31;59.98
50702;BME280;36670;50.094;8.496;2022-08-20T03:04:50;100187.63;;;23.27;59.82
50702;BME280;36670;50.094;8.496;2022-08-20T03:07:15;100185.13;;;23.34;60.06
50702;BME280;36670;50.094;8.496;2022-08-20T03:09:41;100180.16;;;23.31;59.73
50702;BME280;36670;50.094;8.496;2022-08-20T03:12:06;100177.00;;;23.32;59.86
50702;BME280;36670;50.094;8.496;2022-08-20T03:14:32;100181.63;;;23.37;59.38
50702;BME280;36670;50.094;8.496;2022-08-20T03:16:58;100176.31;;;23.35;59.82
50702;BME280;36670;50.094;8.496;2022-08-20T03:19:24;100187.44;;;23.32;59.77
50702;BME280;36670;50.094;8.496;2022-08-20T03:21:50;100187.44;;;23.32;59.51
50702;BME280;36670;50.094;8.496;2022-08-20T03:24:15;100190.06;;;23.37;60.13
50702;BME280;36670;50.094;8.496;2022-08-20T03:26:41;100196.16;;;23.39;59.45
50702;BME280;36670;50.094;8.496;2022-08-20T03:29:07;100197.63;;;23.45;59.91
50702;BME280;36670;50.094;8.496;2022-08-20T03:31:32;100197.28;;;23.47;59.06
50702;BME280;36670;50.094;8.496;2022-08-20T03:33:58;100196.59;;;23.50;59.50
50702;BME280;36670;50.094;8.496;2022-08-20T03:36:24;100192.97;;;23.49;59.24
50702;BME280;36670;50.094;8.496;2022-08-20T03:38:50;100202.56;;;23.48;59.14
50702;BME280;36670;50.094;8.496;2022-08-20T03:41:16;100202.97;;;23.38;59.30
50702;BME280;36670;50.094;8.496;2022-08-20T03:43:43;100200.63;;;23.19;60.18
50702;BME280;36670;50.094;8.496;2022-08-20T03:46:08;100197.13;;;23.22;60.02
50702;BME280;36670;50.094;8.496;2022-08-20T03:48:34;100199.78;;;23.18;60.12
50702;BME280;36670;50.094;8.496;2022-08-20T03:50:59;100209.88;;;23.20;61.00
50702;BME280;36670;50.094;8.496;2022-08-20T03:53:26;100209.41;;;23.09;60.58
50702;BME280;36670;50.094;8.496;2022-08-20T03:55:56;100204.13;;;23.16;60.82
50702;BME280;36670;50.094;8.496;2022-08-20T03:58:22;100208.03;;;23.24;60.37
50702;BME280;36670;50.094;8.496;2022-08-20T04:00:49;100212.31;;;23.30;60.23
50702;BME280;36670;50.094;8.496;2022-08-20T04:03:16;100210.66;;;23.29;60.49
50702;BME280;36670;50.094;8.496;2022-08-20T04:05:43;100212.31;;;23.30;60.47
50702;BME280;36670;50.094;8.496;2022-08-20T04:08:18;100209.69;;;23.25;60.35
50702;BME280;36670;50.094;8.496;2022-08-20T04:10:45;100211.00;;;23.27;60.30
50702;BME280;36670;50.094;8.496;2022-08-20T04:13:11;100208.56;;;23.17;61.01
50702;BME280;36670;50.094;8.496;2022-08-20T04:15:37;100210.94;;;23.06;60.85
50702;BME280;36670;50.094;8.496;2022-08-20T04:18:05;100204.63;;;23.09;60.82
50702;BME280;36670;50.094;8.496;2022-08-20T04:20:32;100201.47;;;23.11;60.88
50702;BME280;36670;50.094;8.496;2022-08-20T04:22:58;100206.78;;;23.12;60.68
50702;BME280;36670;50.094;8.496;2022-08-20T04:25:23;100206.13;;;23.07;60.64
50702;BME280;36670;50.094;8.496;2022-08-20T04:27:49;100209.75;;;23.07;60.75
50702;BME280;36670;50.094;8.496;2022-08-20T04:30:17;100213.59;;;23.02;61.19
50702;BME280;36670;50.094;8.496;2022-08-20T04:32:43;100208.13;;;23.06;60.90
50702;BME280;36670;50.094;8.496;2022-08-20T04:35:11;100211.88;;;23.10;60.87
50702;BME280;36670;50.094;8.496;2022-08-20T04:37:39;100213.88;;;23.10;60.81
50702;BME280;36670;50.094;8.496;2022-08-20T04:40:08;100222.19;;;23.15;60.38
50702;BME280;36670;50.094;8.496;2022-08-20T04:42:52;100213.75;;;23.06;61.40
50702;BME280;36670;50.094;8.496;2022-08-20T04:45:17;100220.09;;;22.94;60.93
50702;BME280;36670;50.094;8.496;2022-08-20T04:47:43;100224.69;;;22.99;60.97
50702;BME280;36670;50.094;8.496;2022-08-20T04:50:10;100216.22;;;23.08;61.18
50702;BME280;36670;50.094;8.496;2022-08-20T04:52:35;100213.88;;;23.10;60.86
50702;BME280;36670;50.094;8.496;2022-08-20T04:55:02;100224.16;;;23.14;60.89
50702;BME280;36670;50.094;8.496;2022-08-20T04:57:28;100227.63;;;23.20;60.58
50702;BME280;36670;50.094;8.496;2022-08-20T04:59:53;100232.06;;;23.21;60.72
50702;BME280;36670;50.094;8.496;2022-08-20T05:02:20;100229.88;;;23.27;60.36
50702;BME280;36670;50.094;8.496;2022-08-20T05:04:45;100241.66;;;23.29;60.53
50702;BME280;36670;50.094;8.496;2022-08-20T05:07:12;100240.97;;;23.32;60.43
50702;BME280;36670;50.094;8.496;2022-08-20T05:09:38;100236.66;;;23.34;60.48
50702;BME280;36670;50.094;8.496;2022-08-20T05:12:03;100237.44;;;23.44;60.25
50702;BME280;36670;50.094;8.496;2022-08-20T05:14:28;100239.97;;;23.58;59.52
50702;BME280;36670;50.094;8.496;2022-08-20T05:16:55;100241.25;;;23.60;59.67
50702;BME280;36670;50.094;8.496;2022-08-20T05:19:22;100242.31;;;23.56;59.46
50702;BME280;36670;50.094;8.496;2022-08-20T05:21:47;100246.56;;;23.62;59.50
50702;BME280;36670;50.094;8.496;2022-08-20T05:24:14;100242.72;;;23.45;59.53
50702;BME280;36670;50.094;8.496;2022-08-20T05:26:40;100252.41;;;23.57;59.59
50702;BME280;36670;50.094;8.496;2022-08-20T05:29:05;100256.88;;;23.28;60.75
50702;BME280;36670;50.094;8.496;2022-08-20T05:31:32;100269.09;;;22.93;62.39
50702;BME280;36670;50.094;8.496;2022-08-20T05:34:02;100268.84;;;22.68;63.31
50702;BME280;36670;50.094;8.496;2022-08-20T05:36:28;100276.84;;;22.58;64.17
50702;BME280;36670;50.094;8.496;2022-08-20T05:38:53;100266.38;;;22.67;63.79
50702;BME280;36670;50.094;8.496;2022-08-20T05:41:19;100269.84;;;22.81;63.47
50702;BME280;36670;50.094;8.496;2022-08-20T05:43:45;100268.13;;;22.89;63.75
50702;BME280;36670;50.094;8.496;2022-08-20T05:46:10;100273.75;;;22.98;63.88
50702;BME280;36670;50.094;8.496;2022-08-20T05:48:37;100278.66;;;23.10;63.30
50702;BME280;36670;50.094;8.496;2022-08-20T05:51:02;100282.63;;;23.17;63.70
50702;BME280;36670;50.094;8.496;2022-08-20T05:53:28;100282.44;;;23.23;63.35
50702;BME280;36670;50.094;8.496;2022-08-20T05:55:56;100283.75;;;23.25;64.10
50702;BME280;36670;50.094;8.496;2022-08-20T05:58:25;100287.53;;;23.29;63.97
50702;BME280;36670;50.094;8.496;2022-08-20T06:00:51;100273.78;;;23.28;64.02
50702;BME280;36670;50.094;8.496;2022-08-20T06:03:17;100270.66;;;23.50;63.85
50702;BME280;36670;50.094;8.496;2022-08-20T06:06:01;100291.34;;;24.27;62.75
50702;BME280;36670;50.094;8.496;2022-08-20T06:08:29;100284.03;;;24.47;61.90
50702;BME280;36670;50.094;8.496;2022-08-20T06:10:54;100286.72;;;24.43;61.92
50702;BME280;36670;50.094;8.496;2022-08-20T06:13:20;100282.13;;;24.17;62.54
50702;BME280;36670;50.094;8.496;2022-08-20T06:15:45;100287.75;;;24.05;63.31
50702;BME280;36670;50.094;8.496;2022-08-20T06:18:11;100281.47;;;24.20;62.58
50702;BME280;36670;50.094;8.496;2022-08-20T06:20:37;100279.78;;;24.41;62.85
50702;BME280;36670;50.094;8.496;2022-08-20T06:23:03;100285.09;;;24.54;61.89
50702;BME280;36670;50.094;8.496;2022-08-20T06:25:29;100288.22;;;24.62;62.35
50702;BME280;36670;50.094;8.496;2022-08-20T06:27:54;100277.47;;;24.88;61.79
50702;BME280;36670;50.094;8.496;2022-08-20T06:30:20;100281.69;;;24.95;61.51
50702;BME280;36670;50.094;8.496;2022-08-20T06:32:46;100285.34;;;24.95;60.79
50702;BME280;36670;50.094;8.496;2022-08-20T06:35:11;100285.72;;;25.06;60.67
50702;BME280;36670;50.094;8.496;2022-08-20T06:37:39;100285.94;;;24.88;60.63
50702;BME280;36670;50.094;8.496;2022-08-20T06:40:13;100290.88;;;24.58;60.68
50702;BME280;36670;50.094;8.496;2022-08-20T06:42:39;100276.47;;;24.05;62.39
50702;BME280;36670;50.094;8.496;2022-08-20T06:45:08;100282.63;;;24.19;61.83
50702;BME280;36670;50.094;8.496;2022-08-20T06:47:34;100281.84;;;24.31;60.95
50702;BME280;36670;50.094;8.496;2022-08-20T06:50:07;100289.63;;;24.34;61.60
50702;BME280;36670;50.094;8.496;2022-08-20T06:52:32;100281.28;;;24.38;61.08
50702;BME280;36670;50.094;8.496;2022-08-20T06:54:58;100285.03;;;24.63;59.70
50702;BME280;36670;50.094;8.496;2022-08-20T06:57:23;100286.88;;;25.05;60.00
50702;BME280;36670;50.094;8.496;2022-08-20T06:59:48;100294.06;;;25.15;59.15
50702;BME280;36670;50.094;8.496;2022-08-20T07:02:14;100294.91;;;25.03;59.66
50702;BME280;36670;50.094;8.496;2022-08-20T07:04:40;100289.56;;;24.77;59.66
50702;BME280;36670;50.094;8.496;2022-08-20T07:07:14;100292.47;;;24.68;60.26
50702;BME280;36670;50.094;8.496;2022-08-20T07:09:40;100292.13;;;24.69;59.98
50702;BME280;36670;50.094;8.496;2022-08-20T07:12:05;100288.06;;;24.58;60.51
50702;BME280;36670;50.094;8.496;2022-08-20T07:14:33;100306.97;;;24.79;59.83
50702;BME280;36670;50.094;8.496;2022-08-20T07:17:02;100303.81;;;24.93;60.29
50702;BME280;36670;50.094;8.496;2022-08-20T07:19:27;100301.84;;;25.05;59.72
50702;BME280;36670;50.094;8.496;2022-08-20T07:21:52;100303.03;;;25.17;59.13
50702;BME280;36670;50.094;8.496;2022-08-20T07:24:17;100302.09;;;25.25;59.87
50702;BME280;36670;50.094;8.496;2022-08-20T07:26:43;100304.81;;;25.46;59.45
50702;BME280;36670;50.094;8.496;2022-08-20T07:29:09;100309.50;;;25.79;59.14
50702;BME280;36670;50.094;8.496;2022-08-20T07:31:34;100302.28;;;25.94;58.68
50702;BME280;36670;50.094;8.496;2022-08-20T07:34:18;100294.28;;;26.37;59.06
50702;BME280;36670;50.094;8.496;2022-08-20T07:36:43;100296.03;;;26.86;57.52
50702;BME280;36670;50.094;8.496;2022-08-20T07:39:09;100294.63;;;27.40;55.55
50702;BME280;36670;50.094;8.496;2022-08-20T07:41:34;100292.72;;;27.80;54.81
50702;BME280;36670;50.094;8.496;2022-08-20T07:44:00;100293.72;;;28.26;54.50
50702;BME280;36670;50.094;8.496;2022-08-20T07:46:25;100290.59;;;28.51;52.32
50702;BME280;36670;50.094;8.496;2022-08-20T07:48:51;100288.19;;;28.73;51.90
50702;BME280;36670;50.094;8.496;2022-08-20T07:51:19;100293.81;;;28.50;51.06
50702;BME280;36670;50.094;8.496;2022-08-20T07:53:45;100301.06;;;28.08;52.06
50702;BME280;36670;50.094;8.496;2022-08-20T07:56:14;100300.25;;;28.27;51.24
50702;BME280;36670;50.094;8.496;2022-08-20T07:58:45;100299.22;;;28.16;50.55
50702;BME280;36670;50.094;8.496;2022-08-20T08:01:26;100308.81;;;28.31;51.57
50702;BME280;36670;50.094;8.496;2022-08-20T08:03:52;100290.72;;;28.58;50.61
50702;BME280;36670;50.094;8.496;2022-08-20T08:06:20;100293.44;;;28.71;50.54
50702;BME280;36670;50.094;8.496;2022-08-20T08:08:46;100307.03;;;28.61;49.94
50702;BME280;36670;50.094;8.496;2022-08-20T08:11:12;100305.22;;;28.14;50.67
50702;BME280;36670;50.094;8.496;2022-08-20T08:13:39;100302.19;;;28.03;51.49
50702;BME280;36670;50.094;8.496;2022-08-20T08:16:06;100304.56;;;28.21;51.36
50702;BME280;36670;50.094;8.496;2022-08-20T08:18:40;100310.19;;;28.17;51.60
50702;BME280;36670;50.094;8.496;2022-08-20T08:21:08;100306.81;;;28.12;53.08
50702;BME280;36670;50.094;8.496;2022-08-20T08:23:36;100304.81;;;27.96;53.16
50702;BME280;36670;50.094;8.496;2022-08-20T08:26:02;100302.00;;;27.61;53.95
50702;BME280;36670;50.094;8.496;2022-08-20T08:28:27;100299.72;;;27.34;54.26
50702;BME280;36670;50.094;8.496;2022-08-20T08:30:54;100299.19;;;27.13;54.91
50702;BME280;36670;50.094;8.496;2022-08-20T08:33:25;100299.53;;;26.95;56.18
50702;BME280;36670;50.094;8.496;2022-08-20T08:36:00;100315.53;;;26.59;58.08
50702;BME280;36670;50.094;8.496;2022-08-20T08:38:28;100315.56;;;26.47;57.00
50702;BME280;36670;50.094;8.496;2022-08-20T08:40:56;100314.44;;;26.35;56.68
50702;BME280;36670;50.094;8.496;2022-08-20T08:43:24;100323.53;;;26.29;56.18
50702;BME280;36670;50.094;8.496;2022-08-20T08:45:58;100318.66;;;26.01;57.17
50702;BME280;36670;50.094;8.496;2022-08-20T08:48:36;100316.56;;;25.85;56.52
50702;BME280;36670;50.094;8.496;2022-08-20T08:51:04;100321.38;;;26.10;56.98
50702;BME280;36670;50.094;8.496;2022-08-20T08:53:39;100323.53;;;26.29;57.84
50702;BME280;36670;50.094;8.496;2022-08-20T08:56:06;100326.34;;;26.41;57.51
50702;BME280;36670;50.094;8.496;2022-08-20T08:58:32;100312.56;;;26.55;57.07
50702;BME280;36670;50.094;8.496;2022-08-20T09:01:17;100314.47;;;26.51;56.55
50702;BME280;36670;50.094;8.496;2022-08-20T09:03:45;100322.94;;;26.35;56.74
50702;BME280;36670;50.094;8.496;2022-08-20T09:06:16;100316.06;;;26.49;56.27
50702;BME280;36670;50.094;8.496;2022-08-20T09:08:47;100323.34;;;26.50;54.93
50702;BME280;36670;50.094;8.496;2022-08-20T09:11:15;100314.91;;;27.10;55.32
50702;BME280;36670;50.094;8.496;2022-08-20T09:13:41;100307.50;;;27.53;55.30
50702;BME280;36670;50.094;8.496;2022-08-20T09:16:07;100306.72;;;28.08;54.35
50702;BME280;36670;50.094;8.496;2022-08-20T09:18:33;100303.00;;;28.43;51.86
50702;BME280;36670;50.094;8.496;2022-08-20T09:20:58;100296.94;;;28.64;51.58
50702;BME280;36670;50.094;8.496;2022-08-20T09:23:23;100295.31;;;28.43;48.62
50702;BME280;36670;50.094;8.496;2022-08-20T09:25:49;100299.22;;;28.35;50.02
50702;BME280;36670;50.094;8.496;2022-08-20T09:28:14;100294.09;;;28.44;48.70
50702;BME280;36670;50.094;8.496;2022-08-20T09:30:40;100299.94;;;28.32;48.39
50702;BME280;36670;50.094;8.496;2022-08-20T09:33:05;100293.41;;;27.92;47.65
50702;BME280;36670;50.094;8.496;2022-08-20T09:35:30;100297.31;;;28.04;48.87
50702;BME280;36670;50.094;8.496;2022-08-20T09:37:56;100294.03;;;28.41;49.51
50702;BME280;36670;50.094;8.496;2022-08-20T09:40:21;100298.88;;;28.40;48.14
50702;BME280;36670;50.094;8.496;2022-08-20T09:42:47;100288.75;;;28.20;46.72
50702;BME280;36670;50.094;8.496;2022-08-20T09:45:13;100292.91;;;28.06;48.34
50702;BME280;36670;50.094;8.496;2022-08-20T09:47:39;100283.06;;;28.39;47.99
50702;BME280;36670;50.094;8.496;2022-08-20T09:50:06;100286.19;;;28.54;47.30
50702;BME280;36670;50.094;8.496;2022-08-20T09:52:35;100286.72;;;28.40;46.78
50702;BME280;36670;50.094;8.496;2022-08-20T09:55:21;100282.56;;;28.34;46.75
50702;BME280;36670;50.094;8.496;2022-08-20T09:57:49;100284.16;;;28.35;46.99
50702;BME280;36670;50.094;8.496;2022-08-20T10:00:16;100272.34;;;28.52;46.31
50702;BME280;36670;50.094;8.496;2022-08-20T10:02:42;100270.28;;;28.69;46.37
50702;BME280;36670;50.094;8.496;2022-08-20T10:05:08;100273.53;;;28.51;46.04
50702;BME280;36670;50.094;8.496;2022-08-20T10:07:34;100270.50;;;28.21;47.19
50702;BME280;36670;50.094;8.496;2022-08-20T10:10:02;100274.25;;;28.05;47.56
50702;BME280;36670;50.094;8.496;2022-08-20T10:12:27;100273.50;;;28.67;47.62
50702;BME280;36670;50.094;8.496;2022-08-20T10:14:52;100270.03;;;29.01;46.54
50702;BME280;36670;50.094;8.496;2022-08-20T10:17:19;100266.38;;;29.50;46.48
50702;BME280;36670;50.094;8.496;2022-08-20T10:19:45;100259.41;;;30.01;45.79
50702;BME280;36670;50.094;8.496;2022-08-20T10:22:10;100262.69;;;30.37;44.31
50702;BME280;36670;50.094;8.496;2022-08-20T10:24:36;100257.06;;;30.10;42.43
50702;BME280;36670;50.094;8.496;2022-08-20T10:27:01;100264.56;;;29.65;43.57
50702;BME280;36670;50.094;8.496;2022-08-20T10:29:27;100262.00;;;30.13;42.22
50702;BME280;36670;50.094;8.496;2022-08-20T10:31:54;100262.31;;;30.42;41.84
50702;BME280;36670;50.094;8.496;2022-08-20T10:34:21;100256.03;;;30.60;40.60
50702;BME280;36670;50.094;8.496;2022-08-20T10:36:47;100255.50;;;30.88;41.16
50702;BME280;36670;50.094;8.496;2022-08-20T10:39:12;100240.03;;;31.38;39.90
50702;BME280;36670;50.094;8.496;2022-08-20T10:41:38;100247.16;;;31.10;39.31
50702;BME280;36670;50.094;8.496;2022-08-20T10:44:03;100250.69;;;30.96;40.07
50702;BME280;36670;50.094;8.496;2022-08-20T10:46:29;100247.78;;;30.89;39.29
50702;BME280;36670;50.094;8.496;2022-08-20T10:48:54;100242.44;;;31.36;39.56
50702;BME280;36670;50.094;8.496;2022-08-20T10:51:20;100247.56;;;31.64;38.82
50702;BME280;36670;50.094;8.496;2022-08-20T10:53:45;100252.13;;;31.17;38.99
50702;BME280;36670;50.094;8.496;2022-08-20T10:56:10;100247.66;;;31.19;39.23
50702;BME280;36670;50.094;8.496;2022-08-20T10:58:36;100240.47;;;31.43;36.87
50702;BME280;36670;50.094;8.496;2022-08-20T11:01:01;100246.06;;;31.25;38.46
50702;BME280;36670;50.094;8.496;2022-08-20T11:03:27;100243.13;;;31.70;38.36
50702;BME280;36670;50.094;8.496;2022-08-20T11:05:52;100248.88;;;31.81;36.74
50702;BME280;36670;50.094;8.496;2022-08-20T11:08:17;100239.41;;;31.10;37.35
50702;BME280;36670;50.094;8.496;2022-08-20T11:10:42;100236.25;;;31.19;37.46
50702;BME280;36670;50.094;8.496;2022-08-20T11:13:08;100233.97;;;31.43;37.60
50702;BME280;36670;50.094;8.496;2022-08-20T11:15:37;100234.63;;;31.81;37.44
50702;BME280;36670;50.094;8.496;2022-08-20T11:18:05;100233.00;;;31.83;36.73
50702;BME280;36670;50.094;8.496;2022-08-20T11:20:30;100224.91;;;32.04;35.71
50702;BME280;36670;50.094;8.496;2022-08-20T11:22:57;100225.25;;;31.84;35.88
50702;BME280;36670;50.094;8.496;2022-08-20T11:25:22;100230.19;;;31.94;35.66
50702;BME280;36670;50.094;8.496;2022-08-20T11:27:49;100217.94;;;31.94;33.88
50702;BME280;36670;50.094;8.496;2022-08-20T11:30:19;100222.44;;;31.95;34.38
50702;BME280;36670;50.094;8.496;2022-08-20T11:32:45;100224.44;;;31.83;33.85
50702;BME280;36670;50.094;8.496;2022-08-20T11:35:10;100218.13;;;31.56;34.54
50702;BME280;36670;50.094;8.496;2022-08-20T11:37:36;100219.50;;;31.77;34.70
50702;BME280;36670;50.094;8.496;2022-08-20T11:40:02;100218.78;;;31.94;33.21
50702;BME280;36670;50.094;8.496;2022-08-20T11:42:27;100217.94;;;31.24;33.33
50702;BME280;36670;50.094;8.496;2022-08-20T11:44:53;100217.69;;;30.95;33.90
50702;BME280;36670;50.094;8.496;2022-08-20T11:47:24;100226.31;;;30.23;34.87
50702;BME280;36670;50.094;8.496;2022-08-20T11:49:58;100223.22;;;30.39;34.89
50702;BME280;36670;50.094;8.496;2022-08-20T11:52:25;100216.88;;;30.50;35.27
50702;BME280;36670;50.094;8.496;2022-08-20T11:54:50;100210.72;;;30.47;35.19
50702;BME280;36670;50.094;8.496;2022-08-20T11:57:35;100209.75;;;30.74;34.23
50702;BME280;36670;50.094;8.496;2022-08-20T12:00:06;100207.59;;;30.60;34.41
50702;BME280;36670;50.094;8.496;2022-08-20T12:02:34;100202.31;;;30.62;34.73
50702;BME280;36670;50.094;8.496;2022-08-20T12:04:59;100205.81;;;30.86;33.75
50702;BME280;36670;50.094;8.496;2022-08-20T12:07:25;100208.72;;;30.96;34.61
50702;BME280;36670;50.094;8.496;2022-08-20T12:09:50;100200.56;;;31.47;32.99
50702;BME280;36670;50.094;8.496;2022-08-20T12:12:17;100199.25;;;31.34;32.62
50702;BME280;36670;50.094;8.496;2022-08-20T12:14:44;100199.22;;;31.30;32.49
50702;BME280;36670;50.094;8.496;2022-08-20T12:17:18;100202.69;;;31.02;32.61
50702;BME280;36670;50.094;8.496;2022-08-20T12:19:45;100198.00;;;30.38;32.66
50702;BME280;36670;50.094;8.496;2022-08-20T12:22:11;100193.66;;;30.96;31.86
50702;BME280;36670;50.094;8.496;2022-08-20T12:24:37;100197.97;;;31.27;31.60
50702;BME280;36670;50.094;8.496;2022-08-20T12:27:13;100195.47;;;30.70;31.59
50702;BME280;36670;50.094;8.496;2022-08-20T12:29:41;100192.22;;;31.17;31.62
50702;BME280;36670;50.094;8.496;2022-08-20T12:32:07;100175.44;;;31.74;31.20
50702;BME280;36670;50.094;8.496;2022-08-20T12:34:33;100181.81;;;32.30;30.52
50702;BME280;36670;50.094;8.496;2022-08-20T12:37:10;100188.69;;;32.19;30.31
50702;BME280;36670;50.094;8.496;2022-08-20T12:39:37;100185.50;;;32.42;30.46
50702;BME280;36670;50.094;8.496;2022-08-20T12:42:03;100173.59;;;32.22;30.45
50702;BME280;36670;50.094;8.496;2022-08-20T12:44:29;100165.09;;;32.68;30.66
50702;BME280;36670;50.094;8.496;2022-08-20T12:47:18;100168.38;;;32.74;29.25
50702;BME280;36670;50.094;8.496;2022-08-20T12:49:46;100174.84;;;32.35;30.28
50702;BME280;36670;50.094;8.496;2022-08-20T12:52:13;100173.25;;;32.45;29.85
50702;BME280;36670;50.094;8.496;2022-08-20T12:54:39;100172.44;;;32.55;29.62
50702;BME280;36670;50.094;8.496;2022-08-20T12:57:05;100177.34;;;32.65;29.76
50702;BME280;36670;50.094;8.496;2022-08-20T12:59:31;100176.53;;;32.54;29.93